Time;durP1;ratioP1;P1;durP2;ratioP2;P2;SDS_P1;SDS_P2;PMS_P1;PMS_P2;Temp;Humidity;BMP_temperature;BMP_pressure;BME280_temperature;BME280_humidity;BME280_pressure;Samples;Min_cycle;Max_cycle;Signal;HPM_P1;HPM_P2
2022/02/19 00:01:16;;;;;;;5.95;1.67;;;7.60;99.90;;;;;;5071553;28;20445;-65
2022/02/19 00:03:43;;;;;;;5.72;1.45;;;7.60;99.90;;;;;;5072274;28;20064;-66
2022/02/19 00:06:10;;;;;;;9.93;2.22;;;7.50;99.90;;;;;;5054596;28;20520;-65
2022/02/19 00:08:38;;;;;;;10.25;1.58;;;7.50;99.90;;;;;;5072649;28;20064;-66
2022/02/19 00:11:05;;;;;;;5.75;1.92;;;7.50;99.90;;;;;;5069551;28;20482;-66
2022/02/19 00:13:32;;;;;;;7.05;1.55;;;7.50;99.90;;;;;;5073087;28;20135;-66
2022/02/19 00:16:03;;;;;;;10.13;1.50;;;7.40;99.90;;;;;;5069652;28;20170;-64
2022/02/19 00:18:30;;;;;;;10.70;1.80;;;7.50;99.90;;;;;;5061531;28;20509;-64
2022/02/19 00:20:58;;;;;;;11.13;1.58;;;7.40;99.90;;;;;;5070179;28;20070;-65
2022/02/19 00:23:28;;;;;;;6.90;1.50;;;7.40;99.90;;;;;;5065921;28;20436;-66
2022/02/19 00:25:57;;;;;;;7.43;1.70;;;7.50;99.90;;;;;;5063954;28;20511;-65
2022/02/19 00:28:26;;;;;;;9.68;1.80;;;7.40;99.90;;;;;;5070866;28;20090;-66
2022/02/19 00:30:54;;;;;;;8.90;1.77;;;7.40;99.90;;;;;;5071651;28;20040;-65
2022/02/19 00:33:24;;;;;;;7.13;1.48;;;7.30;99.90;;;;;;5065851;28;20528;-66
2022/02/19 00:35:52;;;;;;;5.10;1.58;;;7.30;99.90;;;;;;5045704;28;20040;-66
2022/02/19 00:38:20;;;;;;;6.15;1.60;;;7.30;99.90;;;;;;5051526;28;20044;-66
2022/02/19 00:40:49;;;;;;;7.00;1.80;;;7.20;99.90;;;;;;5053347;28;20040;-66
2022/02/19 00:43:16;;;;;;;6.65;1.63;;;7.20;99.90;;;;;;5069466;28;20038;-65
2022/02/19 00:45:44;;;;;;;9.20;1.98;;;7.10;99.90;;;;;;5053635;28;20045;-66
2022/02/19 00:48:13;;;;;;;8.25;1.52;;;7.10;99.90;;;;;;5069050;28;20044;-66
2022/02/19 00:51:01;;;;;;;6.05;1.50;;;7.10;99.90;;;;;;5053139;28;20037;-65
2022/02/19 00:53:31;;;;;;;6.03;1.42;;;7.00;99.90;;;;;;5034442;28;20033;-66
2022/02/19 00:55:59;;;;;;;10.35;1.95;;;7.00;99.90;;;;;;5049494;28;20128;-65
2022/02/19 00:58:26;;;;;;;10.25;1.92;;;7.00;99.90;;;;;;5060030;28;20090;-66
2022/02/19 01:00:53;;;;;;;7.50;2.03;;;7.00;99.90;;;;;;5070230;28;20132;-66
2022/02/19 01:03:38;;;;;;;9.10;2.00;;;7.00;99.90;;;;;;5052961;28;20526;-66
2022/02/19 01:06:06;;;;;;;11.35;2.50;;;6.90;99.90;;;;;;5051577;28;20045;-66
2022/02/19 01:08:34;;;;;;;7.47;1.70;;;6.90;99.90;;;;;;5051596;28;20041;-66
2022/02/19 01:11:02;;;;;;;15.50;2.15;;;6.90;99.90;;;;;;5070617;28;20581;-66
2022/02/19 01:13:30;;;;;;;9.90;1.77;;;7.00;99.90;;;;;;5052518;28;20357;-66
2022/02/19 01:15:58;;;;;;;15.27;2.30;;;6.90;99.90;;;;;;5049728;28;20078;-66
2022/02/19 01:18:26;;;;;;;9.48;2.15;;;6.90;99.90;;;;;;5052429;28;20108;-66
2022/02/19 01:20:53;;;;;;;;;;;6.90;99.90;;;;;;5069417;28;20371;-65
2022/02/19 01:23:20;;;;;;;13.90;2.30;;;6.90;99.90;;;;;;5050521;28;19924;-66
2022/02/19 01:25:48;;;;;;;10.35;2.20;;;6.90;99.90;;;;;;5045766;28;20069;-66
2022/02/19 01:28:15;;;;;;;11.07;2.58;;;6.90;99.90;;;;;;5050311;28;20059;-66
2022/02/19 01:30:43;;;;;;;;;;;6.80;99.90;;;;;;5047490;28;20098;-65
2022/02/19 01:33:11;;;;;;;;;;;6.80;99.90;;;;;;5047023;28;19936;-65
2022/02/19 01:35:39;;;;;;;9.50;1.70;;;6.80;99.90;;;;;;5051231;28;19932;-66
2022/02/19 01:38:07;;;;;;;12.60;2.40;;;6.80;99.90;;;;;;5052274;28;20053;-65
2022/02/19 01:40:34;;;;;;;10.77;2.20;;;6.70;99.90;;;;;;5050920;28;20036;-65
2022/02/19 01:43:03;;;;;;;11.63;2.15;;;6.70;99.90;;;;;;5040847;28;20418;-65
2022/02/19 01:45:31;;;;;;;13.20;2.28;;;6.70;99.90;;;;;;5067326;28;20045;-66
2022/02/19 01:47:59;;;;;;;8.98;1.80;;;6.70;99.90;;;;;;5033093;28;20048;-65
2022/02/19 01:50:26;;;;;;;12.20;2.03;;;6.70;99.90;;;;;;5069386;28;20514;-65
2022/02/19 01:52:54;;;;;;;12.48;2.33;;;6.70;99.90;;;;;;5051115;28;20544;-65
2022/02/19 01:55:35;;;;;;;11.32;2.72;;;6.70;99.90;;;;;;5052381;28;20550;-65
2022/02/19 01:58:08;;;;;;;14.18;2.10;;;6.70;99.90;;;;;;5039445;28;20079;-65
2022/02/19 02:01:05;;;;;;;10.10;2.13;;;6.70;99.90;;;;;;5059900;28;20145;-66
2022/02/19 02:03:51;;;;;;;;;;;6.70;99.90;;;;;;5070168;28;20043;-64
2022/02/19 02:06:27;;;;;;;;;;;6.70;99.90;;;;;;5048078;28;19974;-64
2022/02/19 02:09:00;;;;;;;;;;;6.60;99.90;;;;;;5053008;28;19947;-64
2022/02/19 02:11:33;;;;;;;;;;;6.60;99.90;;;;;;5049760;28;19935;-65
2022/02/19 02:14:01;;;;;;;;;;;6.60;99.90;;;;;;5039601;28;19924;-64
2022/02/19 02:16:47;;;;;;;10.18;2.20;;;6.50;99.90;;;;;;5035761;28;19924;-64
2022/02/19 02:19:16;;;;;;;14.55;2.08;;;6.50;99.90;;;;;;5050307;28;20051;-65
2022/02/19 02:21:58;;;;;;;8.35;2.00;;;6.50;99.90;;;;;;5084374;28;20070;-64
2022/02/19 02:24:26;;;;;;;13.18;2.63;;;6.50;99.90;;;;;;5068406;28;20384;-63
2022/02/19 02:26:55;;;;;;;12.25;2.08;;;6.50;99.90;;;;;;5050918;28;20542;-64
2022/02/19 02:29:23;;;;;;;13.13;2.70;;;6.50;99.90;;;;;;5083894;28;20463;-65
2022/02/19 02:31:50;;;;;;;10.80;2.03;;;6.50;99.90;;;;;;5047388;28;20068;-65
2022/02/19 02:34:19;;;;;;;9.93;1.88;;;6.50;99.90;;;;;;5047951;28;20069;-63
2022/02/19 02:36:46;;;;;;;8.57;2.10;;;6.50;99.90;;;;;;5048544;28;20102;-65
2022/02/19 02:39:15;;;;;;;8.48;2.20;;;6.50;99.90;;;;;;5059472;28;20562;-64
2022/02/19 02:41:43;;;;;;;9.90;1.92;;;6.50;99.90;;;;;;5046895;28;20067;-65
2022/02/19 02:44:13;;;;;;;14.70;2.28;;;6.40;99.90;;;;;;5068087;28;20546;-67
2022/02/19 02:46:42;;;;;;;11.05;2.20;;;6.40;99.90;;;;;;5047645;28;20525;-66
2022/02/19 02:49:11;;;;;;;15.90;2.70;;;6.40;99.90;;;;;;5051825;28;20514;-66
2022/02/19 02:51:38;;;;;;;13.50;2.35;;;6.40;99.90;;;;;;5049275;28;20241;-65
2022/02/19 02:54:05;;;;;;;12.07;2.15;;;6.50;99.90;;;;;;5039014;28;20048;-65
2022/02/19 02:56:34;;;;;;;12.52;2.53;;;6.40;99.90;;;;;;5055781;28;20048;-66
2022/02/19 02:59:01;;;;;;;14.40;2.47;;;6.40;99.90;;;;;;5077621;28;20072;-65
2022/02/19 03:01:29;;;;;;;9.98;2.45;;;6.40;99.90;;;;;;5085309;28;20061;-66
2022/02/19 03:03:56;;;;;;;12.52;2.60;;;6.40;99.90;;;;;;5084030;28;20128;-66
2022/02/19 03:06:23;;;;;;;13.18;2.50;;;6.40;99.90;;;;;;5050415;28;20064;-66
2022/02/19 03:08:53;;;;;;;16.38;2.33;;;6.40;99.90;;;;;;5050381;28;20055;-66
2022/02/19 03:11:20;;;;;;;14.65;2.80;;;6.30;99.90;;;;;;5042865;28;20040;-66
2022/02/19 03:13:48;;;;;;;11.10;2.50;;;6.30;99.90;;;;;;5059491;28;20040;-65
2022/02/19 03:16:16;;;;;;;9.40;2.13;;;6.30;99.90;;;;;;5048005;28;20049;-64
2022/02/19 03:18:43;;;;;;;8.25;2.45;;;6.20;99.90;;;;;;5049121;28;20388;-65
2022/02/19 03:21:11;;;;;;;15.02;2.50;;;6.20;99.90;;;;;;5048967;28;20486;-65
2022/02/19 03:23:38;;;;;;;9.50;2.20;;;6.30;99.90;;;;;;5040835;28;20037;-66
2022/02/19 03:26:07;;;;;;;9.32;2.22;;;6.30;99.90;;;;;;5058961;28;20043;-66
2022/02/19 03:28:36;;;;;;;13.50;2.65;;;6.20;99.90;;;;;;5070053;28;20472;-65
2022/02/19 03:31:07;;;;;;;14.80;3.08;;;6.20;99.90;;;;;;5049843;28;20051;-65
2022/02/19 03:33:47;;;;;;;16.10;2.83;;;6.10;99.90;;;;;;5040875;28;20489;-65
2022/02/19 03:36:18;;;;;;;15.07;2.67;;;6.10;99.90;;;;;;5053797;28;20360;-63
2022/02/19 03:38:45;;;;;;;12.73;2.45;;;6.00;99.90;;;;;;5053921;28;20044;-63
2022/02/19 03:41:18;;;;;;;10.50;2.00;;;6.00;99.90;;;;;;5054031;28;20049;-65
2022/02/19 03:43:46;;;;;;;8.45;2.05;;;6.00;99.90;;;;;;5051612;28;20044;-64
2022/02/19 03:46:14;;;;;;;9.90;2.17;;;6.00;99.90;;;;;;5045041;28;20122;-64
2022/02/19 03:48:53;;;;;;;11.88;2.03;;;6.00;99.90;;;;;;5058963;28;20569;-65
2022/02/19 03:51:22;;;;;;;14.43;2.78;;;6.00;99.90;;;;;;5051437;28;20559;-64
2022/02/19 03:53:50;;;;;;;11.43;2.45;;;6.00;99.90;;;;;;5050112;28;20047;-66
2022/02/19 03:56:22;;;;;;;;;;;6.00;99.90;;;;;;5065045;28;20044;-65
2022/02/19 03:58:55;;;;;;;14.70;2.70;;;6.00;99.90;;;;;;5054102;28;19967;-65
2022/02/19 04:01:22;;;;;;;11.90;2.53;;;6.00;99.90;;;;;;5051441;28;20414;-65
2022/02/19 04:03:51;;;;;;;13.63;2.22;;;5.90;99.90;;;;;;5054002;28;20060;-63
2022/02/19 04:06:19;;;;;;;7.70;2.15;;;5.90;99.90;;;;;;5053993;28;20071;-65
2022/02/19 04:08:46;;;;;;;9.38;2.20;;;5.90;99.90;;;;;;5048739;28;20487;-63
2022/02/19 04:11:13;;;;;;;11.93;2.45;;;5.90;99.90;;;;;;5059026;28;20053;-65
2022/02/19 04:13:44;;;;;;;13.30;3.13;;;5.80;99.90;;;;;;5052986;28;20053;-65
2022/02/19 04:16:18;;;;;;;12.00;2.30;;;5.70;99.90;;;;;;5050695;28;20032;-64
2022/02/19 04:18:52;;;;;;;13.15;2.85;;;5.70;99.90;;;;;;5053269;28;20086;-65
2022/02/19 04:21:20;;;;;;;13.57;2.78;;;5.70;99.90;;;;;;5034463;28;20565;-64
2022/02/19 04:23:48;;;;;;;18.77;2.45;;;5.70;99.90;;;;;;5053846;28;20044;-64
2022/02/19 04:26:17;;;;;;;13.15;2.17;;;5.60;99.90;;;;;;5053534;28;20123;-66
2022/02/19 04:28:50;;;;;;;9.27;1.90;;;5.60;99.90;;;;;;5053211;28;20452;-65
2022/02/19 04:31:22;;;;;;;10.32;2.28;;;5.60;99.90;;;;;;5052980;28;20127;-64
2022/02/19 04:33:58;;;;;;;15.18;2.35;;;5.50;99.90;;;;;;5040775;28;20048;-66
2022/02/19 04:36:27;;;;;;;11.27;2.55;;;5.40;99.90;;;;;;5052959;28;20048;-66
2022/02/19 04:38:55;;;;;;;9.15;1.90;;;5.40;99.90;;;;;;5053271;28;20075;-66
2022/02/19 04:41:26;;;;;;;11.50;2.85;;;5.40;99.90;;;;;;5049597;28;20530;-65
2022/02/19 04:43:53;;;;;;;16.45;2.30;;;5.20;99.90;;;;;;5049502;28;20479;-64
2022/02/19 04:46:21;;;;;;;15.32;3.08;;;5.20;99.90;;;;;;5045952;28;20048;-65
2022/02/19 04:48:50;;;;;;;11.38;2.38;;;5.30;99.90;;;;;;5035652;28;20128;-66
2022/02/19 04:51:20;;;;;;;7.68;2.10;;;5.20;99.90;;;;;;5050844;28;20039;-64
2022/02/19 04:53:52;;;;;;;14.90;2.30;;;5.30;99.90;;;;;;5068672;28;20859;-62
2022/02/19 04:56:19;;;;;;;9.25;1.95;;;5.30;99.90;;;;;;5050202;28;20048;-66
2022/02/19 04:58:49;;;;;;;9.68;3.33;;;5.20;99.90;;;;;;5037102;28;20450;-64
2022/02/19 05:01:16;;;;;;;8.57;2.10;;;5.20;99.90;;;;;;5044071;28;20098;-65
2022/02/19 05:04:13;;;;;;;11.68;2.50;;;5.10;99.90;;;;;;5050871;28;20048;-65
2022/02/19 05:07:00;;;;;;;12.75;2.33;;;5.10;99.90;;;;;;5051899;28;20084;-63
2022/02/19 05:09:29;;;;;;;9.55;2.08;;;5.10;99.90;;;;;;5051809;28;20040;-66
2022/02/19 05:12:04;;;;;;;9.50;2.65;;;5.10;99.90;;;;;;5051043;28;20054;-63
2022/02/19 05:14:34;;;;;;;13.67;2.10;;;5.10;99.90;;;;;;5051926;28;20520;-67
2022/02/19 05:17:10;;;;;;;10.50;2.15;;;5.10;99.90;;;;;;5047719;28;20533;-65
2022/02/19 05:19:41;;;;;;;8.10;1.90;;;5.10;99.90;;;;;;5065033;28;20087;-64
2022/02/19 05:22:10;;;;;;;8.57;2.05;;;5.10;99.90;;;;;;5050596;28;20044;-65
2022/02/19 05:24:42;;;;;;;9.02;2.22;;;5.10;99.90;;;;;;5056242;28;20037;-64
2022/02/19 05:27:14;;;;;;;13.98;2.15;;;5.00;99.90;;;;;;5051007;28;20507;-65
2022/02/19 05:29:43;;;;;;;16.67;1.77;;;5.00;99.90;;;;;;5055048;28;20083;-63
2022/02/19 05:32:13;;;;;;;9.52;2.25;;;5.00;99.90;;;;;;5052346;28;20040;-67
2022/02/19 05:34:53;;;;;;;11.38;2.17;;;4.90;99.90;;;;;;5052336;28;20441;-64
2022/02/19 05:37:22;;;;;;;9.57;2.25;;;5.00;99.90;;;;;;5052622;28;20048;-65
2022/02/19 05:39:51;;;;;;;10.50;2.25;;;4.90;99.90;;;;;;5052756;28;20494;-65
2022/02/19 05:42:21;;;;;;;11.23;2.13;;;4.90;99.90;;;;;;5044154;28;20407;-65
2022/02/19 05:45:11;;;;;;;13.07;2.25;;;4.80;99.90;;;;;;5065098;28;20140;-66
2022/02/19 05:47:42;;;;;;;9.70;2.03;;;4.80;99.90;;;;;;5038696;28;20384;-65
2022/02/19 05:50:32;;;;;;;12.73;2.20;;;4.80;99.90;;;;;;5056452;28;20105;-66
2022/02/19 05:53:06;;;;;;;14.77;2.85;;;4.70;99.90;;;;;;5069301;28;20043;-64
2022/02/19 05:55:37;;;;;;;14.02;2.28;;;4.80;99.90;;;;;;5052008;28;20418;-65
2022/02/19 05:58:06;;;;;;;19.70;2.00;;;4.70;99.90;;;;;;5052167;28;20052;-64
2022/02/19 06:00:34;;;;;;;11.10;2.03;;;4.70;99.90;;;;;;5046708;28;20086;-65
2022/02/19 06:03:03;;;;;;;7.95;2.10;;;4.70;99.90;;;;;;5041694;28;20554;-65
2022/02/19 06:05:32;;;;;;;11.75;2.00;;;4.60;99.90;;;;;;5044574;28;20033;-65
2022/02/19 06:08:01;;;;;;;15.45;2.50;;;4.60;99.90;;;;;;5047089;28;20503;-66
2022/02/19 06:10:28;;;;;;;12.50;2.28;;;4.50;99.90;;;;;;5048828;28;20036;-65
2022/02/19 06:12:57;;;;;;;11.23;2.25;;;4.60;99.90;;;;;;5036412;28;20171;-65
2022/02/19 06:15:32;;;;;;;12.05;1.80;;;4.50;99.90;;;;;;5048446;28;20043;-66
2022/02/19 06:18:32;;;;;;;10.13;2.28;;;4.50;99.90;;;;;;4971965;28;20050;-65
2022/02/19 06:20:59;;;;;;;9.73;1.83;;;4.50;99.90;;;;;;4983218;28;20054;-65
2022/02/19 06:23:34;;;;;;;16.05;2.78;;;4.50;99.90;;;;;;4969767;28;20460;-66
2022/02/19 06:26:02;;;;;;;5.35;1.98;;;4.50;99.90;;;;;;4970597;28;20045;-65
2022/02/19 06:28:44;;;;;;;9.05;1.65;;;4.50;99.90;;;;;;4971999;28;20562;-66
2022/02/19 06:31:14;;;;;;;9.77;2.55;;;4.50;99.90;;;;;;4983449;28;20046;-63
2022/02/19 06:33:42;;;;;;;13.52;2.17;;;4.50;99.90;;;;;;4962332;28;20046;-66
2022/02/19 06:36:10;;;;;;;12.55;2.67;;;4.40;99.90;;;;;;4962401;28;20054;-64
2022/02/19 06:38:39;;;;;;;10.90;2.42;;;4.40;99.90;;;;;;4983998;28;20073;-65
2022/02/19 06:41:09;;;;;;;9.98;1.90;;;4.50;99.90;;;;;;4969689;28;20066;-65
2022/02/19 06:43:53;;;;;;;9.20;2.40;;;4.40;99.90;;;;;;4978713;28;20486;-66
2022/02/19 06:46:21;;;;;;;10.82;2.28;;;4.40;99.90;;;;;;4972107;28;20046;-65
2022/02/19 06:48:49;;;;;;;12.52;2.42;;;4.40;99.90;;;;;;4967288;28;20550;-64
2022/02/19 06:51:17;;;;;;;9.30;2.30;;;4.40;99.90;;;;;;4976222;28;20119;-65
2022/02/19 06:53:44;;;;;;;12.98;1.98;;;4.40;99.90;;;;;;4998310;28;20168;-65
2022/02/19 06:56:12;;;;;;;10.25;1.80;;;4.40;99.90;;;;;;5050602;28;20049;-63
2022/02/19 06:58:40;;;;;;;11.77;2.42;;;4.40;99.90;;;;;;5049641;28;20068;-66
2022/02/19 07:01:07;;;;;;;10.95;2.10;;;4.40;99.90;;;;;;5031188;28;20048;-66
2022/02/19 07:03:35;;;;;;;9.20;2.05;;;4.40;99.90;;;;;;5031697;28;20055;-66
2022/02/19 07:06:22;;;;;;;11.15;2.13;;;4.50;99.90;;;;;;5068313;28;20047;-65
2022/02/19 07:08:50;;;;;;;11.77;2.42;;;4.50;99.90;;;;;;5060255;28;20512;-65
2022/02/19 07:11:18;;;;;;;8.48;2.08;;;4.50;99.90;;;;;;5048381;28;20044;-65
2022/02/19 07:13:46;;;;;;;13.93;2.70;;;4.50;99.90;;;;;;5050778;28;20036;-65
2022/02/19 07:16:14;;;;;;;11.18;2.25;;;4.40;99.90;;;;;;5053745;28;20048;-65
2022/02/19 07:18:46;;;;;;;;;;;4.50;99.90;;;;;;5046917;28;20463;-66
2022/02/19 07:21:17;;;;;;;12.70;2.97;;;4.50;99.90;;;;;;5080492;28;19931;-66
2022/02/19 07:23:46;;;;;;;11.85;1.98;;;4.40;99.90;;;;;;5052128;28;20049;-66
2022/02/19 07:26:18;;;;;;;7.68;1.95;;;4.40;99.90;;;;;;5051644;28;20044;-63
2022/02/19 07:28:48;;;;;;;8.60;1.98;;;4.40;99.90;;;;;;5046780;28;20036;-65
2022/02/19 07:31:17;;;;;;;7.15;1.45;;;4.40;99.90;;;;;;5049931;28;20049;-66
2022/02/19 07:33:44;;;;;;;7.97;1.85;;;4.40;99.90;;;;;;5071322;28;20068;-65
2022/02/19 07:36:18;;;;;;;9.82;2.40;;;4.50;99.90;;;;;;5055016;28;20052;-67
2022/02/19 07:38:46;;;;;;;12.18;2.10;;;4.50;99.90;;;;;;5036534;28;20064;-66
2022/02/19 07:41:13;;;;;;;12.80;2.40;;;4.60;99.90;;;;;;5026781;28;20040;-65
2022/02/19 07:43:52;;;;;;;;;;;4.60;99.90;;;;;;5058002;28;20044;-65
2022/02/19 07:46:29;;;;;;;13.60;2.17;;;4.70;99.90;;;;;;5047243;28;19939;-67
2022/02/19 07:58:19;;;;;;;15.38;2.15;;;4.90;99.90;;;;;;5044271;28;20493;-66
2022/02/19 08:00:54;;;;;;;13.13;3.30;;;5.00;99.90;;;;;;5045730;28;20127;-63
2022/02/19 08:03:24;;;;;;;8.48;2.33;;;5.00;99.90;;;;;;5060151;28;20048;-64
2022/02/19 08:05:59;;;;;;;10.68;2.40;;;5.00;99.90;;;;;;5046717;28;20450;-65
2022/02/19 08:08:28;;;;;;;11.88;3.15;;;4.90;99.90;;;;;;5059286;28;20052;-65
2022/02/19 08:11:00;;;;;;;12.23;2.17;;;4.90;99.90;;;;;;5039169;28;20059;-65
2022/02/19 08:13:27;;;;;;;11.30;2.30;;;4.90;99.90;;;;;;5057874;28;20049;-66
2022/02/19 08:15:55;;;;;;;10.98;2.00;;;4.90;99.90;;;;;;5063448;28;20669;-66
2022/02/19 08:18:23;;;;;;;8.73;2.28;;;4.90;99.90;;;;;;5048927;28;20118;-66
2022/02/19 08:20:52;;;;;;;10.07;2.38;;;5.00;99.90;;;;;;5067152;28;20037;-65
2022/02/19 08:23:21;;;;;;;11.55;2.38;;;4.90;99.90;;;;;;5064023;28;20044;-65
2022/02/19 08:25:54;;;;;;;8.35;2.00;;;5.10;99.90;;;;;;5071788;28;20502;-65
2022/02/19 08:28:22;;;;;;;10.57;2.30;;;5.00;99.90;;;;;;5058804;28;20052;-66
2022/02/19 08:30:50;;;;;;;11.52;2.35;;;5.10;99.90;;;;;;5061635;28;20473;-66
2022/02/19 08:33:19;;;;;;;12.27;2.40;;;5.30;99.90;;;;;;5069689;28;20143;-66
2022/02/19 08:35:46;;;;;;;9.32;1.92;;;5.40;99.90;;;;;;5070500;28;20139;-66
2022/02/19 08:38:14;;;;;;;6.43;1.63;;;5.40;99.90;;;;;;5070170;28;20048;-65
2022/02/19 08:40:42;;;;;;;10.20;2.00;;;5.50;99.90;;;;;;5066001;28;20834;-66
2022/02/19 08:43:09;;;;;;;9.93;2.28;;;5.60;99.90;;;;;;5048577;28;20043;-66
2022/02/19 08:45:38;;;;;;;11.95;2.60;;;5.60;99.90;;;;;;5070655;28;20052;-65
2022/02/19 08:48:06;;;;;;;10.77;1.67;;;5.50;99.90;;;;;;5071480;28;20550;-65
2022/02/19 08:50:39;;;;;;;9.93;1.95;;;5.50;99.90;;;;;;5070819;28;20109;-67
2022/02/19 08:53:09;;;;;;;10.32;2.50;;;5.60;99.90;;;;;;5065035;28;20048;-66
2022/02/19 08:55:37;;;;;;;12.20;2.25;;;5.60;99.90;;;;;;5070297;28;20336;-66
2022/02/19 08:58:05;;;;;;;11.95;2.63;;;5.60;99.90;;;;;;5070581;28;20052;-66
2022/02/19 09:00:33;;;;;;;10.40;2.20;;;5.60;99.90;;;;;;5068634;28;20064;-65
2022/02/19 09:03:00;;;;;;;10.73;2.75;;;5.60;99.90;;;;;;5070405;28;20075;-64
2022/02/19 09:05:28;;;;;;;8.90;1.83;;;5.80;99.90;;;;;;5070406;28;20091;-64
2022/02/19 09:07:55;;;;;;;8.43;1.90;;;5.80;99.90;;;;;;5071390;28;20444;-66
2022/02/19 09:10:22;;;;;;;10.38;1.67;;;6.00;99.90;;;;;;5070585;28;20102;-66
2022/02/19 09:12:49;;;;;;;11.23;2.35;;;6.00;99.90;;;;;;5068119;28;20113;-64
2022/02/19 09:15:20;;;;;;;9.25;1.88;;;5.90;99.90;;;;;;5065824;28;20586;-68
2022/02/19 09:17:48;;;;;;;10.88;1.92;;;5.80;99.90;;;;;;5062248;28;20082;-67
2022/02/19 09:20:19;;;;;;;10.85;2.20;;;6.00;99.90;;;;;;5034127;28;20491;-65
2022/02/19 09:22:46;;;;;;;10.50;2.38;;;6.10;99.90;;;;;;5064530;28;20482;-62
2022/02/19 09:25:14;;;;;;;7.50;1.65;;;6.00;99.90;;;;;;5052395;28;20052;-66
2022/02/19 09:27:42;;;;;;;14.82;2.45;;;6.10;99.90;;;;;;5065996;28;20129;-65
2022/02/19 09:30:10;;;;;;;9.35;2.05;;;6.30;99.90;;;;;;5066767;28;20039;-65
2022/02/19 09:32:39;;;;;;;12.15;1.98;;;6.30;99.90;;;;;;5064701;28;20185;-66
2022/02/19 09:35:07;;;;;;;7.82;1.73;;;6.30;99.90;;;;;;5071592;28;20044;-66
2022/02/19 09:37:35;;;;;;;13.77;2.38;;;6.10;99.90;;;;;;5070580;28;20044;-66
2022/02/19 09:40:06;;;;;;;9.25;1.75;;;6.10;99.90;;;;;;5067992;28;20052;-67
2022/02/19 09:42:36;;;;;;;9.50;2.15;;;5.90;99.90;;;;;;5060643;28;20518;-66
2022/02/19 09:45:06;;;;;;;11.50;2.05;;;5.90;99.90;;;;;;5057719;28;20483;-66
2022/02/19 09:47:35;;;;;;;12.70;1.90;;;5.90;99.90;;;;;;5026770;28;20502;-66
2022/02/19 09:50:05;;;;;;;7.03;1.42;;;5.80;99.90;;;;;;5065778;28;20155;-66
2022/02/19 09:52:32;;;;;;;7.68;1.50;;;5.90;99.90;;;;;;5054747;28;20053;-67
2022/02/19 09:55:00;;;;;;;7.65;1.70;;;6.00;99.90;;;;;;5036106;28;20075;-65
2022/02/19 09:57:28;;;;;;;6.40;2.05;;;6.10;99.90;;;;;;5058396;28;20062;-66
2022/02/19 09:59:55;;;;;;;8.63;1.70;;;6.20;99.90;;;;;;5053663;28;20131;-65
2022/02/19 10:02:31;;;;;;;7.50;1.95;;;6.20;99.90;;;;;;5055387;28;20492;-67
2022/02/19 10:05:19;;;;;;;8.82;1.80;;;6.30;99.90;;;;;;5058794;28;20499;-65
2022/02/19 10:08:03;;;;;;;10.05;1.73;;;6.50;99.90;;;;;;5067192;28;20488;-66
2022/02/19 10:10:32;;;;;;;10.70;2.42;;;6.60;99.90;;;;;;5057907;28;20040;-67
2022/02/19 10:12:59;;;;;;;11.73;2.67;;;6.40;99.90;;;;;;5057826;28;20056;-65
2022/02/19 10:15:48;;;;;;;9.52;1.65;;;6.60;99.90;;;;;;5036372;28;20047;-65
2022/02/19 10:18:34;;;;;;;6.47;1.95;;;6.60;99.90;;;;;;5058243;28;20044;-65
2022/02/19 10:21:22;;;;;;;9.65;1.83;;;6.80;99.90;;;;;;5058051;28;20047;-65
2022/02/19 10:23:52;;;;;;;8.23;1.98;;;7.00;99.90;;;;;;5057206;28;20559;-65
2022/02/19 10:26:21;;;;;;;9.50;1.73;;;7.30;99.90;;;;;;5053518;28;20115;-65
2022/02/19 10:29:03;;;;;;;9.95;2.15;;;7.60;99.90;;;;;;5067727;28;20040;-64
2022/02/19 10:31:32;;;;;;;7.03;1.50;;;7.30;99.90;;;;;;5068512;28;20055;-66
2022/02/19 10:34:14;;;;;;;8.05;2.38;;;7.10;99.90;;;;;;5058684;28;20139;-68
2022/02/19 10:36:50;;;;;;;12.45;2.10;;;7.10;99.90;;;;;;5057330;28;20536;-66
2022/02/19 10:39:28;;;;;;;10.10;1.67;;;7.30;99.90;;;;;;5067872;28;20462;-66
2022/02/19 10:41:57;;;;;;;5.13;1.38;;;7.50;99.90;;;;;;5066246;28;20037;-65
2022/02/19 10:44:30;;;;;;;8.75;1.90;;;7.50;99.90;;;;;;5068492;28;20055;-66
2022/02/19 10:47:25;;;;;;;7.00;1.60;;;7.40;99.90;;;;;;5058851;28;20044;-65
2022/02/19 10:50:21;;;;;;;8.13;2.03;;;7.30;99.90;;;;;;5069167;28;20404;-66
2022/02/19 10:53:08;;;;;;;9.43;2.20;;;7.50;99.90;;;;;;5062359;28;20073;-65
2022/02/19 10:55:36;;;;;;;9.27;1.70;;;7.30;99.90;;;;;;5065891;28;20053;-66
2022/02/19 10:58:06;;;;;;;7.07;1.65;;;7.40;99.90;;;;;;5068326;28;20052;-65
2022/02/19 11:00:35;;;;;;;8.77;1.88;;;7.30;99.90;;;;;;5058030;28;20565;-66
2022/02/19 11:03:06;;;;;;;11.18;1.83;;;7.20;99.90;;;;;;5052614;28;20064;-68
2022/02/19 11:05:34;;;;;;;7.28;1.60;;;7.30;99.90;;;;;;5062865;28;20048;-67
2022/02/19 11:08:01;;;;;;;15.73;1.90;;;7.40;99.90;;;;;;5051269;28;20040;-67
2022/02/19 11:10:29;;;;;;;10.52;1.50;;;7.50;99.90;;;;;;5068306;28;20049;-66
2022/02/19 11:12:56;;;;;;;6.22;1.48;;;7.60;99.90;;;;;;5051578;28;20122;-66
2022/02/19 11:15:25;;;;;;;6.32;1.75;;;8.00;99.90;;;;;;5049637;28;20423;-65
2022/02/19 11:17:54;;;;;;;8.50;1.58;;;8.10;99.90;;;;;;5043276;28;20040;-65
2022/02/19 11:20:25;;;;;;;5.15;1.67;;;7.90;99.90;;;;;;5038150;28;20052;-66
2022/02/19 11:22:57;;;;;;;6.20;1.30;;;7.80;99.90;;;;;;5064533;28;20460;-66
2022/02/19 11:25:25;;;;;;;7.28;2.28;;;7.80;99.90;;;;;;5050986;28;20486;-66
2022/02/19 11:28:11;;;;;;;8.30;1.45;;;7.90;99.90;;;;;;5065835;28;20049;-67
2022/02/19 11:30:51;;;;;;;6.13;1.63;;;8.40;99.90;;;;;;5059929;28;20055;-67
2022/02/19 11:33:20;;;;;;;6.90;1.73;;;8.90;99.90;;;;;;5066446;28;20147;-65
2022/02/19 11:35:48;;;;;;;10.50;2.05;;;9.00;99.90;;;;;;5064654;28;20569;-66
2022/02/19 11:38:22;;;;;;;7.20;1.77;;;8.60;99.90;;;;;;5069253;28;20063;-67
2022/02/19 11:40:56;;;;;;;7.95;1.52;;;8.70;99.90;;;;;;5066660;28;20051;-66
2022/02/19 11:43:32;;;;;;;9.63;1.80;;;9.00;99.90;;;;;;5067759;28;20048;-66
2022/02/19 11:46:15;;;;;;;7.35;1.67;;;8.80;99.90;;;;;;5064200;28;20388;-67
2022/02/19 11:48:45;;;;;;;8.75;1.80;;;9.30;99.90;;;;;;5038018;28;20787;-67
2022/02/19 11:51:16;;;;;;;6.82;1.63;;;9.60;99.90;;;;;;5039162;28;20051;-65
2022/02/19 11:53:46;;;;;;;8.35;1.75;;;9.70;99.90;;;;;;5070939;28;20052;-65
2022/02/19 11:56:30;;;;;;;7.40;1.77;;;9.50;99.90;;;;;;5068144;28;20051;-64
2022/02/19 11:58:59;;;;;;;5.38;1.52;;;9.30;99.90;;;;;;5073455;28;20056;-65
2022/02/19 12:01:27;;;;;;;5.82;1.40;;;9.40;99.90;;;;;;5056577;28;20502;-65
2022/02/19 12:04:09;;;;;;;4.70;1.30;;;9.30;99.90;;;;;;5061102;28;20037;-66
2022/02/19 12:06:38;;;;;;;6.18;1.33;;;9.50;99.90;;;;;;5060317;28;20363;-66
2022/02/19 12:09:08;;;;;;;8.10;1.95;;;9.40;99.90;;;;;;5063694;28;20045;-66
2022/02/19 12:12:06;;;;;;;5.25;1.48;;;9.60;99.90;;;;;;5065246;28;20040;-67
2022/02/19 12:14:43;;;;;;;5.57;1.77;;;9.60;99.90;;;;;;5063314;28;20037;-67
2022/02/19 12:17:12;;;;;;;8.15;1.42;;;9.80;99.90;;;;;;5058255;28;20044;-66
2022/02/19 12:19:51;;;;;;;8.57;1.52;;;9.60;99.90;;;;;;5069987;28;20427;-66
2022/02/19 12:22:34;;;;;;;6.32;1.63;;;10.00;99.90;;;;;;5066296;28;20419;-66
2022/02/19 12:25:11;;;;;;;8.77;1.67;;;9.50;99.90;;;;;;5072841;28;20056;-65
2022/02/19 12:27:40;;;;;;;8.25;1.73;;;9.30;99.90;;;;;;5072469;28;20064;-66
2022/02/19 12:30:23;;;;;;;6.80;1.52;;;9.20;99.90;;;;;;5053147;28;20131;-65
2022/02/19 12:32:55;;;;;;;6.25;1.45;;;8.90;99.90;;;;;;5066680;28;20051;-64
2022/02/19 12:35:45;;;;;;;5.78;1.30;;;8.60;99.90;;;;;;5071403;28;20036;-66
2022/02/19 12:38:14;;;;;;;6.40;1.67;;;8.40;99.90;;;;;;5072211;28;20499;-65
2022/02/19 12:40:42;;;;;;;5.32;1.92;;;8.40;99.90;;;;;;5072194;28;20076;-66
2022/02/19 12:43:14;;;;;;;8.20;1.70;;;8.80;99.90;;;;;;5071506;28;20055;-66
2022/02/19 12:45:44;;;;;;;10.50;1.70;;;10.40;99.90;;;;;;5064161;28;20033;-65
2022/02/19 12:48:12;;;;;;;5.05;1.42;;;10.80;99.90;;;;;;5067741;28;20543;-66
2022/02/19 12:50:39;;;;;;;8.90;1.50;;;10.10;99.90;;;;;;5071682;28;20815;-66
2022/02/19 12:53:06;;;;;;;3.13;1.13;;;10.10;99.90;;;;;;5071733;28;20058;-66
2022/02/19 12:55:34;;;;;;;4.82;1.15;;;11.60;99.90;;;;;;5069723;28;20045;-66
2022/02/19 12:58:02;;;;;;;6.13;1.60;;;12.10;99.90;;;;;;5061344;28;20063;-65
2022/02/19 13:00:31;;;;;;;6.57;1.35;;;12.00;99.90;;;;;;5060936;28;20051;-65
2022/02/19 13:03:04;;;;;;;5.78;1.80;;;11.00;99.90;;;;;;5064916;28;20041;-67
2022/02/19 13:05:34;;;;;;;6.20;1.40;;;11.40;99.90;;;;;;5071393;28;20135;-66
2022/02/19 13:08:10;;;;;;;6.50;1.50;;;11.50;99.90;;;;;;5069611;28;20040;-67
2022/02/19 13:10:40;;;;;;;6.35;1.52;;;13.20;99.90;;;;;;5067832;28;20483;-67
2022/02/19 13:13:21;;;;;;;5.57;1.42;;;14.80;99.30;;;;;;5064707;28;20143;-66
2022/02/19 13:15:59;;;;;;;6.63;1.60;;;15.80;96.80;;;;;;5064726;28;20503;-66
2022/02/19 13:18:40;;;;;;;6.25;1.30;;;16.80;93.60;;;;;;5069262;28;20552;-66
2022/02/19 13:21:11;;;;;;;7.72;2.03;;;17.40;91.20;;;;;;5074435;28;20048;-66
2022/02/19 13:23:40;;;;;;;5.00;1.70;;;18.20;88.00;;;;;;5071271;28;20055;-66
2022/02/19 13:26:34;;;;;;;9.38;1.70;;;17.30;86.10;;;;;;5067245;28;20074;-65